Time,TemperatureF,DewpointF,PressureIn,WindDirection,WindDirectionDegrees,WindSpeedMPH,WindSpeedGustMPH,Humidity,HourlyPrecipIn,Conditions,Clouds,dailyrainin,SoftwareType,DateUTC
2013-04-29 00:02:00,32.9,22.1,30.15,SW,225,0.0,2.0,64,0.00,,,0.00,meteohub,2013-04-29 07:02:00,
2013-04-29 00:07:00,32.7,23.0,30.15,SW,224,1.0,2.0,67,0.00,,,0.00,meteohub,2013-04-29 07:07:00,
2013-04-29 00:12:00,33.1,22.6,30.14,SW,224,0.0,2.0,65,0.00,,,0.00,meteohub,2013-04-29 07:12:00,
2013-04-29 00:17:00,33.4,22.6,30.14,SW,224,0.0,2.0,64,0.00,,,0.00,meteohub,2013-04-29 07:17:00,
2013-04-29 00:22:00,33.4,22.6,30.15,SW,224,0.0,2.0,64,0.00,,,0.00,meteohub,2013-04-29 07:22:00,
2013-04-29 00:27:00,33.3,22.5,30.15,SW,224,0.0,1.0,64,0.00,,,0.00,meteohub,2013-04-29 07:27:00,
2013-04-29 00:32:00,33.1,22.6,30.14,SW,224,0.0,1.0,65,0.00,,,0.00,meteohub,2013-04-29 07:32:00,
2013-04-29 00:37:00,32.7,22.6,30.14,SW,224,0.0,0.0,66,0.00,,,0.00,meteohub,2013-04-29 07:37:00,
2013-04-29 00:42:00,32.5,22.8,30.14,SW,224,0.0,1.0,67,0.00,,,0.00,meteohub,2013-04-29 07:42:00,
2013-04-29 00:47:00,32.4,22.3,30.14,ESE,105,1.0,1.0,66,0.00,,,0.00,meteohub,2013-04-29 07:47:00,
2013-04-29 00:52:00,32.2,22.5,30.14,ESE,105,1.0,3.0,67,0.00,,,0.00,meteohub,2013-04-29 07:52:00,
2013-04-29 00:57:00,32.2,22.5,30.14,ESE,105,0.0,3.0,67,0.00,,,0.00,meteohub,2013-04-29 07:57:00,
2013-04-29 01:02:00,32.4,22.3,30.14,ESE,105,1.0,2.0,66,0.00,,,0.00,meteohub,2013-04-29 08:02:00,
2013-04-29 01:07:00,32.4,22.6,30.14,ESE,105,0.0,2.0,67,0.00,,,0.00,meteohub,2013-04-29 08:07:00,
2013-04-29 01:12:00,32.4,22.3,30.14,ESE,105,0.0,2.0,66,0.00,,,0.00,meteohub,2013-04-29 08:12:00,
2013-04-29 01:17:00,32.5,22.5,30.14,ESE,105,0.0,1.0,66,0.00,,,0.00,meteohub,2013-04-29 08:17:00,
2013-04-29 01:22:00,32.5,22.1,30.13,ESE,105,0.0,1.0,65,0.00,,,0.00,meteohub,2013-04-29 08:22:00,
2013-04-29 01:27:00,32.5,22.8,30.13,NNW,330,1.0,1.0,67,0.00,,,0.00,meteohub,2013-04-29 08:27:00,
2013-04-29 01:32:00,31.8,22.8,30.13,NNW,330,0.0,2.0,69,0.00,,,0.00,meteohub,2013-04-29 08:32:00,
2013-04-29 01:37:00,31.3,22.6,30.13,NNW,330,0.0,2.0,70,0.00,,,0.00,meteohub,2013-04-29 08:37:00,
2013-04-29 01:42:00,30.9,23.4,30.13,NNW,330,0.0,2.0,73,0.00,,,0.00,meteohub,2013-04-29 08:42:00,
2013-04-29 01:47:00,30.7,23.2,30.13,NNW,330,0.0,1.0,73,0.00,,,0.00,meteohub,2013-04-29 08:47:00,
2013-04-29 01:52:00,30.6,23.0,30.13,NNW,330,0.0,1.0,73,0.00,,,0.00,meteohub,2013-04-29 08:52:00,
2013-04-29 01:57:00,30.4,22.8,30.12,NNW,330,0.0,1.0,73,0.00,,,0.00,meteohub,2013-04-29 08:57:00,
2013-04-29 02:02:00,30.4,22.5,30.12,NNW,330,0.0,0.0,72,0.00,,,0.00,meteohub,2013-04-29 09:02:00,
2013-04-29 02:07:00,30.4,22.1,30.12,NNW,330,0.0,0.0,71,0.00,,,0.00,meteohub,2013-04-29 09:07:00,
2013-04-29 02:12:00,30.4,22.1,30.12,NNW,330,0.0,0.0,71,0.00,,,0.00,meteohub,2013-04-29 09:12:00,
2013-04-29 02:17:00,30.6,21.9,30.12,NNW,330,0.0,0.0,70,0.00,,,0.00,meteohub,2013-04-29 09:17:00,
2013-04-29 02:22:00,30.6,21.9,30.12,NNW,330,0.0,0.0,70,0.00,,,0.00,meteohub,2013-04-29 09:22:00,
2013-04-29 02:27:00,30.4,21.7,30.12,NNW,330,0.0,0.0,70,0.00,,,0.00,meteohub,2013-04-29 09:27:00,
2013-04-29 02:32:00,30.0,21.4,30.12,NNW,330,0.0,0.0,70,0.00,,,0.00,meteohub,2013-04-29 09:32:00,
2013-04-29 02:37:00,29.5,21.2,30.12,NNW,330,0.0,1.0,71,0.00,,,0.00,meteohub,2013-04-29 09:37:00,
2013-04-29 02:42:00,29.1,21.2,30.12,NNW,330,0.0,1.0,72,0.00,,,0.00,meteohub,2013-04-29 09:42:00,
2013-04-29 02:47:00,28.9,21.4,30.12,NNW,330,0.0,0.0,73,0.00,,,0.00,meteohub,2013-04-29 09:47:00,
2013-04-29 02:52:00,28.9,21.4,30.11,NNW,330,0.0,0.0,73,0.00,,,0.00,meteohub,2013-04-29 09:52:00,
2013-04-29 02:57:00,28.9,21.4,30.11,NNW,330,0.0,0.0,73,0.00,,,0.00,meteohub,2013-04-29 09:57:00,
2013-04-29 03:02:00,29.1,21.2,30.11,NNW,330,0.0,0.0,72,0.00,,,0.00,meteohub,2013-04-29 10:02:00,
2013-04-29 03:07:00,29.1,21.2,30.11,NNW,330,0.0,0.0,72,0.00,,,0.00,meteohub,2013-04-29 10:07:00,
2013-04-29 03:12:00,28.9,21.0,30.11,NNW,330,0.0,0.0,72,0.00,,,0.00,meteohub,2013-04-29 10:12:00,
2013-04-29 03:17:00,28.8,21.2,30.11,NNW,330,0.0,0.0,73,0.00,,,0.00,meteohub,2013-04-29 10:17:00,
2013-04-29 03:22:00,28.6,21.0,30.11,NNW,330,0.0,1.0,73,0.00,,,0.00,meteohub,2013-04-29 10:22:00,
2013-04-29 03:27:00,28.6,21.0,30.11,NNW,330,0.0,1.0,73,0.00,,,0.00,meteohub,2013-04-29 10:27:00,
2013-04-29 03:32:00,28.8,21.6,30.10,NNW,330,0.0,1.0,74,0.00,,,0.00,meteohub,2013-04-29 10:32:00,
2013-04-29 03:37:00,28.6,20.7,30.10,NNW,330,0.0,0.0,72,0.00,,,0.00,meteohub,2013-04-29 10:37:00,
2013-04-29 03:42:00,28.0,20.8,30.10,NNW,330,0.0,2.0,74,0.00,,,0.00,meteohub,2013-04-29 10:42:00,
2013-04-29 03:47:00,27.9,21.2,30.11,NNW,330,0.0,2.0,76,0.00,,,0.00,meteohub,2013-04-29 10:47:00,
2013-04-29 03:52:00,27.5,21.9,30.11,NNW,330,0.0,2.0,79,0.00,,,0.00,meteohub,2013-04-29 10:52:00,
2013-04-29 03:57:00,27.3,21.9,30.11,NNW,330,0.0,1.0,80,0.00,,,0.00,meteohub,2013-04-29 10:57:00,
2013-04-29 04:02:00,27.1,22.1,30.11,NNW,330,0.0,1.0,81,0.00,,,0.00,meteohub,2013-04-29 11:02:00,
2013-04-29 04:07:00,27.0,21.9,30.11,NNW,330,0.0,1.0,81,0.00,,,0.00,meteohub,2013-04-29 11:07:00,
2013-04-29 04:12:00,27.0,21.9,30.11,NNW,330,0.0,0.0,81,0.00,,,0.00,meteohub,2013-04-29 11:12:00,
2013-04-29 04:17:00,26.8,21.7,30.11,NNW,330,0.0,0.0,81,0.00,,,0.00,meteohub,2013-04-29 11:17:00,
2013-04-29 04:22:00,27.0,21.9,30.11,NNW,330,0.0,0.0,81,0.00,,,0.00,meteohub,2013-04-29 11:22:00,
2013-04-29 04:27:00,26.8,21.7,30.11,NNW,330,0.0,0.0,81,0.00,,,0.00,meteohub,2013-04-29 11:27:00,
2013-04-29 04:32:00,27.0,21.6,30.11,NNW,330,0.0,0.0,80,0.00,,,0.00,meteohub,2013-04-29 11:32:00,
2013-04-29 04:37:00,27.0,21.6,30.11,NNW,330,0.0,0.0,80,0.00,,,0.00,meteohub,2013-04-29 11:37:00,
2013-04-29 04:42:00,27.0,21.0,30.10,NNW,330,1.0,0.0,78,0.00,,,0.00,meteohub,2013-04-29 11:42:00,
2013-04-29 04:47:00,25.9,19.9,30.11,NNW,330,0.0,3.0,78,0.00,,,0.00,meteohub,2013-04-29 11:47:00,
2013-04-29 04:52:00,25.3,20.7,30.11,NNW,330,0.0,3.0,82,0.00,,,0.00,meteohub,2013-04-29 11:52:00,
2013-04-29 04:57:00,25.3,20.7,30.11,NNW,330,0.0,3.0,82,0.00,,,0.00,meteohub,2013-04-29 11:57:00,
2013-04-29 05:02:00,25.2,20.1,30.11,NNW,330,0.0,3.0,81,0.00,,,0.00,meteohub,2013-04-29 12:02:00,
2013-04-29 05:07:00,25.2,20.5,30.11,NNW,330,0.0,3.0,82,0.00,,,0.00,meteohub,2013-04-29 12:07:00,
2013-04-29 05:12:00,25.2,20.5,30.12,NNW,330,1.0,3.0,82,0.00,,,0.00,meteohub,2013-04-29 12:12:00,
2013-04-29 05:17:00,25.0,19.9,30.11,NNW,330,0.0,2.0,81,0.00,,,0.00,meteohub,2013-04-29 12:17:00,
2013-04-29 05:22:00,25.0,20.3,30.12,NNW,330,0.0,2.0,82,0.00,,,0.00,meteohub,2013-04-29 12:22:00,
2013-04-29 05:27:00,25.2,20.7,30.11,NNW,330,0.0,2.0,83,0.00,,,0.00,meteohub,2013-04-29 12:27:00,
2013-04-29 05:37:00,25.3,19.8,30.12,NNW,330,0.0,1.0,79,0.00,,,0.00,meteohub,2013-04-29 12:37:00,
2013-04-29 05:42:00,25.2,20.1,30.12,NNW,330,0.0,1.0,81,0.00,,,0.00,meteohub,2013-04-29 12:42:00,
2013-04-29 05:47:00,25.2,20.7,30.12,NNW,330,0.0,1.0,83,0.00,,,0.00,meteohub,2013-04-29 12:47:00,
2013-04-29 05:52:00,25.3,21.2,30.12,NNW,330,0.0,1.0,84,0.00,,,0.00,meteohub,2013-04-29 12:52:00,
2013-04-29 05:57:00,25.3,20.7,30.12,NNW,330,1.0,1.0,82,0.00,,,0.00,meteohub,2013-04-29 12:57:00,
2013-04-29 06:02:00,25.3,20.7,30.12,NNW,330,0.0,2.0,82,0.00,,,0.00,meteohub,2013-04-29 13:02:00,
2013-04-29 06:07:00,25.5,20.8,30.12,NNW,330,0.0,2.0,82,0.00,,,0.00,meteohub,2013-04-29 13:07:00,
2013-04-29 06:12:00,25.3,20.7,30.11,NNW,330,2.0,2.0,82,0.00,,,0.00,meteohub,2013-04-29 13:12:00,
2013-04-29 06:17:00,25.3,20.8,30.11,NNW,330,0.0,3.0,83,0.00,,,0.00,meteohub,2013-04-29 13:17:00,
2013-04-29 06:22:00,25.5,21.6,30.11,NNW,330,1.0,3.0,85,0.00,,,0.00,meteohub,2013-04-29 13:22:00,
2013-04-29 06:27:00,25.9,21.9,30.11,NNW,330,0.0,3.0,85,0.00,,,0.00,meteohub,2013-04-29 13:27:00,
2013-04-29 06:32:00,26.2,22.3,30.11,NNW,329,0.0,3.0,85,0.00,,,0.00,meteohub,2013-04-29 13:32:00,
2013-04-29 06:37:00,27.0,23.0,30.10,NNW,329,0.0,2.0,85,0.00,,,0.00,meteohub,2013-04-29 13:37:00,
2013-04-29 06:42:00,27.9,23.0,30.10,NNW,329,0.0,1.0,82,0.00,,,0.00,meteohub,2013-04-29 13:42:00,
2013-04-29 06:47:00,28.9,23.5,30.10,NNW,329,0.0,1.0,80,0.00,,,0.00,meteohub,2013-04-29 13:47:00,
2013-04-29 06:52:00,30.0,24.3,30.10,NNW,329,2.0,2.0,79,0.00,,,0.00,meteohub,2013-04-29 13:52:00,
2013-04-29 06:57:00,31.3,25.0,30.10,NNW,329,2.0,3.0,77,0.00,,,0.00,meteohub,2013-04-29 13:57:00,
2013-04-29 07:02:00,32.2,25.5,30.09,NNW,329,1.0,3.0,76,0.00,,,0.00,meteohub,2013-04-29 14:02:00,
2013-04-29 07:07:00,33.1,25.0,30.09,NNW,329,1.0,3.0,72,0.00,,,0.00,meteohub,2013-04-29 14:07:00,
2013-04-29 07:12:00,34.2,25.7,30.09,NNW,329,0.0,3.0,71,0.00,,,0.00,meteohub,2013-04-29 14:12:00,
2013-04-29 07:22:00,36.1,25.5,30.09,NNW,329,0.0,3.0,65,0.00,,,0.00,meteohub,2013-04-29 14:22:00,
2013-04-29 07:27:00,37.2,25.7,30.09,NNW,329,0.0,2.0,63,0.00,,,0.00,meteohub,2013-04-29 14:27:00,
2013-04-29 07:32:00,38.5,27.0,30.08,NNW,329,0.0,2.0,63,0.00,,,0.00,meteohub,2013-04-29 14:32:00,
2013-04-29 07:37:00,39.4,25.9,30.08,NNW,329,0.0,2.0,58,0.00,,,0.00,meteohub,2013-04-29 14:37:00,
2013-04-29 07:47:00,41.7,25.9,30.08,NNW,329,0.0,1.0,53,0.00,,,0.00,meteohub,2013-04-29 14:47:00,
2013-04-29 07:52:00,43.2,26.2,30.08,NNW,329,0.0,1.0,51,0.00,,,0.00,meteohub,2013-04-29 14:52:00,
2013-04-29 07:57:00,44.2,25.7,30.07,NNW,329,0.0,1.0,48,0.00,,,0.00,meteohub,2013-04-29 14:57:00,
2013-04-29 08:02:00,45.3,25.2,30.07,NNW,329,0.0,2.0,45,0.00,,,0.00,meteohub,2013-04-29 15:02:00,
2013-04-29 08:07:00,46.2,26.1,30.06,NNW,329,0.0,2.0,45,0.00,,,0.00,meteohub,2013-04-29 15:07:00,
2013-04-29 08:12:00,46.8,24.8,30.06,NNW,329,0.0,2.0,42,0.00,,,0.00,meteohub,2013-04-29 15:12:00,
2013-04-29 08:17:00,47.7,24.4,30.06,NNW,329,1.0,2.0,40,0.00,,,0.00,meteohub,2013-04-29 15:17:00,
2013-04-29 08:22:00,48.9,25.0,30.05,NNW,329,1.0,2.0,39,0.00,,,0.00,meteohub,2013-04-29 15:22:00,
2013-04-29 08:27:00,49.5,25.0,30.04,NNW,337,1.0,2.0,38,0.00,,,0.00,meteohub,2013-04-29 15:27:00,
2013-04-29 08:32:00,50.0,25.3,30.04,NNW,337,0.0,2.0,38,0.00,,,0.00,meteohub,2013-04-29 15:32:00,
2013-04-29 08:37:00,50.7,26.1,30.04,NNW,337,0.0,2.0,38,0.00,,,0.00,meteohub,2013-04-29 15:37:00,
2013-04-29 08:42:00,51.6,26.2,30.04,South,169,0.0,3.0,37,0.00,,,0.00,meteohub,2013-04-29 15:42:00,
2013-04-29 08:47:00,52.5,27.0,30.03,SSE,165,0.0,3.0,37,0.00,,,0.00,meteohub,2013-04-29 15:47:00,
2013-04-29 08:52:00,53.8,26.1,30.03,NNW,333,0.0,4.0,34,0.00,,,0.00,meteohub,2013-04-29 15:52:00,
2013-04-29 08:57:00,55.0,26.4,30.03,West,269,2.0,11.0,33,0.00,,,0.00,meteohub,2013-04-29 15:57:00,
2013-04-29 09:02:00,56.1,25.9,30.03,NNW,330,17.0,17.0,31,0.00,,,0.00,meteohub,2013-04-29 16:02:00,
2013-04-29 09:07:00,57.6,25.5,30.02,NNE,22,7.0,17.0,29,0.00,,,0.00,meteohub,2013-04-29 16:07:00,
2013-04-29 09:12:00,57.7,23.9,30.02,NNE,21,5.0,17.0,27,0.00,,,0.00,meteohub,2013-04-29 16:12:00,
2013-04-29 09:17:00,57.9,23.2,30.01,NNW,344,10.0,17.0,26,0.00,,,0.00,meteohub,2013-04-29 16:17:00,
2013-04-29 09:22:00,57.9,23.2,30.01,NW,311,5.0,21.0,26,0.00,,,0.00,meteohub,2013-04-29 16:22:00,
2013-04-29 09:27:00,58.3,22.6,30.01,NNW,347,4.0,21.0,25,0.00,,,0.00,meteohub,2013-04-29 16:27:00,
2013-04-29 09:32:00,58.5,23.7,30.01,WNW,289,8.0,18.0,26,0.00,,,0.00,meteohub,2013-04-29 16:32:00,
2013-04-29 09:37:00,59.0,24.1,30.01,NNE,25,11.0,19.0,26,0.00,,,0.00,meteohub,2013-04-29 16:37:00,
2013-04-29 09:42:00,59.4,23.5,30.01,NW,325,9.0,19.0,25,0.00,,,0.00,meteohub,2013-04-29 16:42:00,
2013-04-29 09:47:00,59.2,23.4,30.00,NW,309,8.0,19.0,25,0.00,,,0.00,meteohub,2013-04-29 16:47:00,
2013-04-29 09:52:00,59.4,23.5,30.00,NW,313,8.0,17.0,25,0.00,,,0.00,meteohub,2013-04-29 16:52:00,
2013-04-29 09:57:00,59.7,25.7,30.00,NNW,334,6.0,15.0,27,0.00,,,0.00,meteohub,2013-04-29 16:57:00,
2013-04-29 10:02:00,59.9,23.0,30.00,NNE,23,10.0,16.0,24,0.00,,,0.00,meteohub,2013-04-29 17:02:00,
2013-04-29 10:07:00,60.1,24.1,30.00,NW,310,5.0,16.0,25,0.00,,,0.00,meteohub,2013-04-29 17:07:00,
2013-04-29 10:17:00,60.6,23.5,29.99,NNE,16,12.0,19.0,24,0.00,,,0.00,meteohub,2013-04-29 17:17:00,
2013-04-29 10:22:00,60.6,23.5,29.99,West,259,8.0,19.0,24,0.00,,,0.00,meteohub,2013-04-29 17:22:00,
2013-04-29 10:27:00,60.4,21.4,30.00,WNW,303,9.0,23.0,22,0.00,,,0.00,meteohub,2013-04-29 17:27:00,
2013-04-29 10:32:00,60.8,22.8,29.99,WNW,300,9.0,23.0,23,0.00,,,0.00,meteohub,2013-04-29 17:32:00,
2013-04-29 10:37:00,61.2,24.1,30.00,WNW,303,14.0,23.0,24,0.00,,,0.00,meteohub,2013-04-29 17:37:00,
2013-04-29 10:42:00,60.6,25.5,29.99,NW,319,6.0,22.0,26,0.00,,,0.00,meteohub,2013-04-29 17:42:00,
2013-04-29 10:47:00,61.2,23.0,29.99,WNW,298,12.0,22.0,23,0.00,,,0.00,meteohub,2013-04-29 17:47:00,
2013-04-29 10:52:00,61.3,22.1,29.99,NW,310,7.0,17.0,22,0.00,,,0.00,meteohub,2013-04-29 17:52:00,
2013-04-29 10:57:00,61.9,23.7,29.99,North,5,7.0,17.0,23,0.00,,,0.00,meteohub,2013-04-29 17:57:00,
2013-04-29 11:02:00,62.1,21.7,29.98,NE,46,9.0,17.0,21,0.00,,,0.00,meteohub,2013-04-29 18:02:00,
2013-04-29 11:07:00,61.9,21.6,29.98,NNE,24,12.0,17.0,21,0.00,,,0.00,meteohub,2013-04-29 18:07:00,
2013-04-29 11:12:00,62.1,21.7,29.98,NW,311,13.0,16.0,21,0.00,,,0.00,meteohub,2013-04-29 18:12:00,
2013-04-29 11:17:00,62.2,23.0,29.98,WNW,295,11.0,18.0,22,0.00,,,0.00,meteohub,2013-04-29 18:17:00,
2013-04-29 11:22:00,62.8,23.4,29.98,NNW,340,9.0,18.0,22,0.00,,,0.00,meteohub,2013-04-29 18:22:00,
2013-04-29 11:27:00,63.5,23.9,29.97,ENE,65,10.0,18.0,22,0.00,,,0.00,meteohub,2013-04-29 18:27:00,
2013-04-29 11:32:00,63.3,22.6,29.97,NW,312,12.0,20.0,21,0.00,,,0.00,meteohub,2013-04-29 18:32:00,
2013-04-29 11:37:00,63.7,23.0,29.96,North,355,5.0,20.0,21,0.00,,,0.00,meteohub,2013-04-29 18:37:00,
2013-04-29 11:42:00,64.0,23.4,29.96,North,355,8.0,17.0,21,0.00,,,0.00,meteohub,2013-04-29 18:42:00,
2013-04-29 11:47:00,63.7,21.9,29.96,North,350,7.0,18.0,20,0.00,,,0.00,meteohub,2013-04-29 18:47:00,
2013-04-29 11:52:00,63.0,20.1,29.96,North,5,8.0,18.0,19,0.00,,,0.00,meteohub,2013-04-29 18:52:00,
2013-04-29 11:57:00,63.0,22.5,29.96,WNW,294,9.0,18.0,21,0.00,,,0.00,meteohub,2013-04-29 18:57:00,
2013-04-29 12:02:00,62.2,23.0,29.96,NW,307,11.0,18.0,22,0.00,,,0.00,meteohub,2013-04-29 19:02:00,
2013-04-29 12:07:00,63.7,24.1,29.96,NW,316,14.0,24.0,22,0.00,,,0.00,meteohub,2013-04-29 19:07:00,
2013-04-29 12:12:00,63.5,22.8,29.96,WNW,284,9.0,24.0,21,0.00,,,0.00,meteohub,2013-04-29 19:12:00,
2013-04-29 12:17:00,63.5,21.7,29.95,WNW,300,6.0,24.0,20,0.00,,,0.00,meteohub,2013-04-29 19:17:00,
2013-04-29 12:22:00,63.9,24.3,29.95,NNE,19,9.0,18.0,22,0.00,,,0.00,meteohub,2013-04-29 19:22:00,
2013-04-29 12:32:00,63.7,20.7,29.95,NW,307,8.0,23.0,19,0.00,,,0.00,meteohub,2013-04-29 19:32:00,
2013-04-29 12:37:00,64.8,21.6,29.95,NW,316,4.0,23.0,19,0.00,,,0.00,meteohub,2013-04-29 19:37:00,
2013-04-29 12:42:00,64.4,21.2,29.95,NE,53,4.0,23.0,19,0.00,,,0.00,meteohub,2013-04-29 19:42:00,
2013-04-29 12:47:00,64.8,22.8,29.95,NW,323,8.0,16.0,20,0.00,,,0.00,meteohub,2013-04-29 19:47:00,
2013-04-29 12:52:00,64.6,23.7,29.95,WSW,248,11.0,16.0,21,0.00,,,0.00,meteohub,2013-04-29 19:52:00,
2013-04-29 12:57:00,64.2,22.3,29.94,NW,315,6.0,16.0,20,0.00,,,0.00,meteohub,2013-04-29 19:57:00,
2013-04-29 13:02:00,63.7,23.0,29.94,NW,313,12.0,16.0,21,0.00,,,0.00,meteohub,2013-04-29 20:02:00,
2013-04-29 13:07:00,63.9,21.9,29.93,NW,306,10.0,14.0,20,0.00,,,0.00,meteohub,2013-04-29 20:07:00,
2013-04-29 13:12:00,64.8,21.6,29.93,NNW,330,12.0,14.0,19,0.00,,,0.00,meteohub,2013-04-29 20:12:00,
2013-04-29 13:17:00,64.6,22.6,29.94,NW,309,18.0,22.0,20,0.00,,,0.00,meteohub,2013-04-29 20:17:00,
2013-04-29 13:22:00,64.9,22.8,29.93,NW,317,12.0,22.0,20,0.00,,,0.00,meteohub,2013-04-29 20:22:00,
2013-04-29 13:27:00,65.8,23.7,29.93,NW,311,11.0,22.0,20,0.00,,,0.00,meteohub,2013-04-29 20:27:00,
2013-04-29 13:32:00,65.5,22.1,29.93,NW,325,10.0,20.0,19,0.00,,,0.00,meteohub,2013-04-29 20:32:00,
2013-04-29 13:37:00,65.1,20.5,29.93,NW,317,7.0,20.0,18,0.00,,,0.00,meteohub,2013-04-29 20:37:00,
2013-04-29 13:47:00,64.2,19.8,29.93,NW,309,10.0,20.0,18,0.00,,,0.00,meteohub,2013-04-29 20:47:00,
2013-04-29 13:52:00,64.8,20.3,29.93,North,355,6.0,18.0,18,0.00,,,0.00,meteohub,2013-04-29 20:52:00,
2013-04-29 13:57:00,66.0,22.6,29.93,NW,304,8.0,18.0,19,0.00,,,0.00,meteohub,2013-04-29 20:57:00,
2013-04-29 14:02:00,66.4,18.9,29.93,NW,324,8.0,20.0,16,0.00,,,0.00,meteohub,2013-04-29 21:02:00,
2013-04-29 14:07:00,65.7,21.0,29.92,NW,313,12.0,20.0,18,0.00,,,0.00,meteohub,2013-04-29 21:07:00,
2013-04-29 14:12:00,65.7,19.6,29.92,West,279,6.0,20.0,17,0.00,,,0.00,meteohub,2013-04-29 21:12:00,
2013-04-29 14:17:00,65.7,19.6,29.92,WNW,301,11.0,21.0,17,0.00,,,0.00,meteohub,2013-04-29 21:17:00,
2013-04-29 14:22:00,65.7,19.6,29.92,NW,313,15.0,21.0,17,0.00,,,0.00,meteohub,2013-04-29 21:22:00,
2013-04-29 14:27:00,65.3,20.7,29.91,NW,318,9.0,21.0,18,0.00,,,0.00,meteohub,2013-04-29 21:27:00,
2013-04-29 14:32:00,65.8,19.8,29.91,West,265,10.0,20.0,17,0.00,,,0.00,meteohub,2013-04-29 21:32:00,
2013-04-29 14:37:00,66.0,21.2,29.90,NW,317,12.0,20.0,18,0.00,,,0.00,meteohub,2013-04-29 21:37:00,
2013-04-29 14:42:00,66.2,18.7,29.91,NW,313,13.0,20.0,16,0.00,,,0.00,meteohub,2013-04-29 21:42:00,
2013-04-29 14:47:00,65.8,18.3,29.91,West,273,9.0,20.0,16,0.00,,,0.00,meteohub,2013-04-29 21:47:00,
2013-04-29 14:52:00,65.7,18.3,29.91,NW,321,10.0,19.0,16,0.00,,,0.00,meteohub,2013-04-29 21:52:00,
2013-04-29 14:57:00,65.7,19.6,29.90,NNW,348,5.0,19.0,17,0.00,,,0.00,meteohub,2013-04-29 21:57:00,
2013-04-29 15:02:00,66.6,19.0,29.90,NW,317,13.0,18.0,16,0.00,,,0.00,meteohub,2013-04-29 22:02:00,
2013-04-29 15:07:00,66.4,18.9,29.90,NW,309,13.0,23.0,16,0.00,,,0.00,meteohub,2013-04-29 22:07:00,
2013-04-29 15:12:00,66.0,17.1,29.90,NW,310,13.0,23.0,15,0.00,,,0.00,meteohub,2013-04-29 22:12:00,
2013-04-29 15:17:00,65.7,18.3,29.89,NW,322,13.0,21.0,16,0.00,,,0.00,meteohub,2013-04-29 22:17:00,
2013-04-29 15:22:00,66.0,17.1,29.89,NNW,346,8.0,18.0,15,0.00,,,0.00,meteohub,2013-04-29 22:22:00,
2013-04-29 15:32:00,66.2,17.2,29.88,NW,309,15.0,21.0,15,0.00,,,0.00,meteohub,2013-04-29 22:32:00,
2013-04-29 15:37:00,66.0,17.1,29.89,WNW,300,11.0,21.0,15,0.00,,,0.00,meteohub,2013-04-29 22:37:00,
2013-04-29 15:42:00,65.7,16.7,29.88,NW,305,7.0,21.0,15,0.00,,,0.00,meteohub,2013-04-29 22:42:00,
2013-04-29 15:47:00,65.5,18.1,29.88,WNW,289,9.0,19.0,16,0.00,,,0.00,meteohub,2013-04-29 22:47:00,
2013-04-29 15:52:00,65.7,18.3,29.88,NNW,329,6.0,19.0,16,0.00,,,0.00,meteohub,2013-04-29 22:52:00,
2013-04-29 15:57:00,66.0,17.1,29.87,NNW,331,13.0,20.0,15,0.00,,,0.00,meteohub,2013-04-29 22:57:00,
2013-04-29 16:02:00,66.6,17.4,29.87,NW,316,10.0,20.0,15,0.00,,,0.00,meteohub,2013-04-29 23:02:00,
2013-04-29 16:07:00,66.0,17.1,29.87,NW,309,13.0,19.0,15,0.00,,,0.00,meteohub,2013-04-29 23:07:00,
2013-04-29 16:12:00,65.8,18.3,29.87,West,273,9.0,19.0,16,0.00,,,0.00,meteohub,2013-04-29 23:12:00,
2013-04-29 16:17:00,66.4,17.2,29.87,NNW,333,6.0,19.0,15,0.00,,,0.00,meteohub,2013-04-29 23:17:00,
2013-04-29 16:22:00,66.2,15.6,29.87,NW,313,15.0,19.0,14,0.00,,,0.00,meteohub,2013-04-29 23:22:00,
2013-04-29 16:27:00,66.2,17.2,29.87,NW,321,8.0,19.0,15,0.00,,,0.00,meteohub,2013-04-29 23:27:00,
2013-04-29 16:32:00,66.7,17.6,29.87,NW,317,7.0,19.0,15,0.00,,,0.00,meteohub,2013-04-29 23:32:00,
2013-04-29 16:37:00,67.3,14.7,29.87,NW,311,8.0,19.0,13,0.00,,,0.00,meteohub,2013-04-29 23:37:00,
2013-04-29 16:42:00,66.6,12.4,29.87,NW,319,14.0,15.0,12,0.00,,,0.00,meteohub,2013-04-29 23:42:00,
2013-04-29 16:47:00,66.2,15.6,29.87,NW,319,14.0,22.0,14,0.00,,,0.00,meteohub,2013-04-29 23:47:00,
2013-04-29 16:52:00,66.0,17.1,29.87,NW,317,10.0,22.0,15,0.00,,,0.00,meteohub,2013-04-29 23:52:00,
2013-04-29 16:57:00,65.7,15.1,29.87,NW,312,12.0,22.0,14,0.00,,,0.00,meteohub,2013-04-29 23:57:00,
2013-04-29 17:02:00,65.7,15.1,29.86,NW,307,14.0,19.0,14,0.00,,,0.00,meteohub,2013-04-30 00:02:00,
2013-04-29 17:07:00,64.9,16.2,29.86,NW,323,10.0,21.0,15,0.00,,,0.00,meteohub,2013-04-30 00:07:00,
2013-04-29 17:12:00,64.0,16.9,29.87,NW,319,13.0,21.0,16,0.00,,,0.00,meteohub,2013-04-30 00:12:00,
2013-04-29 17:17:00,64.2,17.1,29.86,North,355,8.0,21.0,16,0.00,,,0.00,meteohub,2013-04-30 00:17:00,
2013-04-29 17:22:00,64.2,14.0,29.87,NW,307,12.0,17.0,14,0.00,,,0.00,meteohub,2013-04-30 00:22:00,
2013-04-29 17:27:00,64.0,15.4,29.86,NNW,333,12.0,18.0,15,0.00,,,0.00,meteohub,2013-04-30 00:27:00,
2013-04-29 17:32:00,63.9,15.3,29.86,NW,324,12.0,18.0,15,0.00,,,0.00,meteohub,2013-04-30 00:32:00,
2013-04-29 17:37:00,63.7,13.6,29.86,NW,309,10.0,17.0,14,0.00,,,0.00,meteohub,2013-04-30 00:37:00,
2013-04-29 17:42:00,63.3,14.9,29.86,NW,319,8.0,17.0,15,0.00,,,0.00,meteohub,2013-04-30 00:42:00,
2013-04-29 17:47:00,63.1,14.7,29.87,NW,309,11.0,17.0,15,0.00,,,0.00,meteohub,2013-04-30 00:47:00,
2013-04-29 17:52:00,63.3,14.9,29.86,NW,304,9.0,17.0,15,0.00,,,0.00,meteohub,2013-04-30 00:52:00,
2013-04-29 17:57:00,63.1,16.2,29.86,NW,326,9.0,16.0,16,0.00,,,0.00,meteohub,2013-04-30 00:57:00,
2013-04-29 18:02:00,62.8,12.9,29.87,NW,314,7.0,16.0,14,0.00,,,0.00,meteohub,2013-04-30 01:02:00,
2013-04-29 18:07:00,62.6,12.7,29.87,NW,309,6.0,16.0,14,0.00,,,0.00,meteohub,2013-04-30 01:07:00,
2013-04-29 18:12:00,62.2,14.0,29.87,NW,318,6.0,16.0,15,0.00,,,0.00,meteohub,2013-04-30 01:12:00,
2013-04-29 18:17:00,61.9,12.2,29.87,NW,314,9.0,15.0,14,0.00,,,0.00,meteohub,2013-04-30 01:17:00,
2013-04-29 18:22:00,61.5,11.8,29.87,NW,315,7.0,13.0,14,0.00,,,0.00,meteohub,2013-04-30 01:22:00,
2013-04-29 18:27:00,61.3,14.7,29.87,NW,317,5.0,12.0,16,0.00,,,0.00,meteohub,2013-04-30 01:27:00,
2013-04-29 18:32:00,61.0,12.9,29.86,NW,307,5.0,12.0,15,0.00,,,0.00,meteohub,2013-04-30 01:32:00,
2013-04-29 18:37:00,60.6,14.2,29.86,NW,319,2.0,11.0,16,0.00,,,0.00,meteohub,2013-04-30 01:37:00,
2013-04-29 18:42:00,60.1,13.6,29.87,NW,321,9.0,11.0,16,0.00,,,0.00,meteohub,2013-04-30 01:42:00,
2013-04-29 18:47:00,59.9,14.9,29.86,NW,315,10.0,12.0,17,0.00,,,0.00,meteohub,2013-04-30 01:47:00,
2013-04-29 18:52:00,59.4,15.8,29.87,NW,304,3.0,12.0,18,0.00,,,0.00,meteohub,2013-04-30 01:52:00,
2013-04-29 18:57:00,58.1,17.2,29.87,NW,310,3.0,12.0,20,0.00,,,0.00,meteohub,2013-04-30 01:57:00,
2013-04-29 19:02:00,57.2,16.5,29.87,NW,315,0.0,10.0,20,0.00,,,0.00,meteohub,2013-04-30 02:02:00,
2013-04-29 19:12:00,55.8,17.4,29.87,WNW,303,3.0,6.0,22,0.00,,,0.00,meteohub,2013-04-30 02:12:00,
2013-04-29 19:17:00,55.2,18.1,29.87,NW,310,1.0,6.0,23,0.00,,,0.00,meteohub,2013-04-30 02:17:00,
2013-04-29 19:22:00,54.5,19.4,29.87,NW,310,0.0,6.0,25,0.00,,,0.00,meteohub,2013-04-30 02:22:00,
2013-04-29 19:27:00,53.6,18.7,29.87,NW,310,1.0,5.0,25,0.00,,,0.00,meteohub,2013-04-30 02:27:00,
2013-04-29 19:32:00,53.2,18.3,29.87,NE,43,1.0,2.0,25,0.00,,,0.00,meteohub,2013-04-30 02:32:00,
2013-04-29 19:37:00,53.1,18.1,29.87,NE,43,1.0,3.0,25,0.00,,,0.00,meteohub,2013-04-30 02:37:00,
2013-04-29 19:42:00,52.7,17.8,29.88,NE,43,0.0,3.0,25,0.00,,,0.00,meteohub,2013-04-30 02:42:00,
2013-04-29 19:47:00,50.7,21.9,29.88,SE,131,1.0,3.0,32,0.00,,,0.00,meteohub,2013-04-30 02:47:00,
2013-04-29 19:52:00,47.8,20.8,29.88,SE,133,1.0,4.0,34,0.00,,,0.00,meteohub,2013-04-30 02:52:00,
2013-04-29 19:57:00,46.9,19.4,29.88,SE,133,0.0,4.0,33,0.00,,,0.00,meteohub,2013-04-30 02:57:00,
2013-04-29 20:02:00,46.9,19.9,29.88,SE,133,0.0,4.0,34,0.00,,,0.00,meteohub,2013-04-30 03:02:00,
2013-04-29 20:07:00,46.8,21.2,29.88,SE,134,1.0,3.0,36,0.00,,,0.00,meteohub,2013-04-30 03:07:00,
2013-04-29 20:12:00,46.0,20.5,29.88,SE,134,0.0,3.0,36,0.00,,,0.00,meteohub,2013-04-30 03:12:00,
2013-04-29 20:17:00,45.9,19.8,29.88,SE,134,0.0,3.0,35,0.00,,,0.00,meteohub,2013-04-30 03:17:00,
2013-04-29 20:27:00,46.6,19.8,29.89,SE,134,0.0,2.0,34,0.00,,,0.00,meteohub,2013-04-30 03:27:00,
2013-04-29 20:32:00,46.9,19.9,29.89,SE,145,0.0,2.0,34,0.00,,,0.00,meteohub,2013-04-30 03:32:00,
2013-04-29 20:37:00,46.8,20.5,29.88,South,169,3.0,3.0,35,0.00,,,0.00,meteohub,2013-04-30 03:37:00,
2013-04-29 20:42:00,46.6,21.0,29.89,SSE,156,4.0,5.0,36,0.00,,,0.00,meteohub,2013-04-30 03:42:00,
2013-04-29 20:47:00,46.6,20.3,29.89,SSE,155,4.0,6.0,35,0.00,,,0.00,meteohub,2013-04-30 03:47:00,
2013-04-29 20:52:00,46.8,21.2,29.89,SSE,158,0.0,6.0,36,0.00,,,0.00,meteohub,2013-04-30 03:52:00,
2013-04-29 20:57:00,46.2,21.4,29.89,SSE,158,0.0,6.0,37,0.00,,,0.00,meteohub,2013-04-30 03:57:00,
2013-04-29 21:02:00,45.7,21.6,29.89,SSE,158,1.0,4.0,38,0.00,,,0.00,meteohub,2013-04-30 04:02:00,
2013-04-29 21:07:00,45.3,21.2,29.89,SSE,158,0.0,3.0,38,0.00,,,0.00,meteohub,2013-04-30 04:07:00,
2013-04-29 21:12:00,45.3,20.7,29.89,SSE,158,0.0,2.0,37,0.00,,,0.00,meteohub,2013-04-30 04:12:00,
2013-04-29 21:17:00,45.3,20.7,29.89,SSE,158,1.0,3.0,37,0.00,,,0.00,meteohub,2013-04-30 04:17:00,
2013-04-29 21:22:00,45.5,20.7,29.89,SSE,158,2.0,3.0,37,0.00,,,0.00,meteohub,2013-04-30 04:22:00,
2013-04-29 21:27:00,45.7,20.8,29.88,SSE,158,0.0,3.0,37,0.00,,,0.00,meteohub,2013-04-30 04:27:00,
2013-04-29 21:32:00,45.3,21.7,29.88,SSE,158,0.0,3.0,39,0.00,,,0.00,meteohub,2013-04-30 04:32:00,
2013-04-29 21:37:00,45.0,21.6,29.88,SSE,158,1.0,4.0,39,0.00,,,0.00,meteohub,2013-04-30 04:37:00,
2013-04-29 21:42:00,44.2,21.4,29.88,SSE,158,0.0,5.0,40,0.00,,,0.00,meteohub,2013-04-30 04:42:00,
2013-04-29 21:47:00,43.5,21.4,29.88,SSE,158,0.0,5.0,41,0.00,,,0.00,meteohub,2013-04-30 04:47:00,
2013-04-29 21:52:00,43.2,21.0,29.88,SSE,158,0.0,5.0,41,0.00,,,0.00,meteohub,2013-04-30 04:52:00,
2013-04-29 21:57:00,42.6,22.3,29.88,SSE,158,0.0,2.0,44,0.00,,,0.00,meteohub,2013-04-30 04:57:00,
2013-04-29 22:02:00,42.1,22.3,29.88,SSE,158,0.0,1.0,45,0.00,,,0.00,meteohub,2013-04-30 05:02:00,
2013-04-29 22:07:00,41.2,22.5,29.88,SSE,158,0.0,1.0,47,0.00,,,0.00,meteohub,2013-04-30 05:07:00,
2013-04-29 22:12:00,40.5,21.7,29.88,SSE,158,0.0,1.0,47,0.00,,,0.00,meteohub,2013-04-30 05:12:00,
2013-04-29 22:17:00,40.1,21.9,29.88,SSE,158,0.0,0.0,48,0.00,,,0.00,meteohub,2013-04-30 05:17:00,
2013-04-29 22:22:00,39.9,21.7,29.88,SSE,158,2.0,0.0,48,0.00,,,0.00,meteohub,2013-04-30 05:22:00,
2013-04-29 22:27:00,39.6,21.6,29.88,SSE,158,0.0,3.0,48,0.00,,,0.00,meteohub,2013-04-30 05:27:00,
2013-04-29 22:32:00,39.6,21.6,29.88,SSE,158,2.0,3.0,48,0.00,,,0.00,meteohub,2013-04-30 05:32:00,
2013-04-29 22:37:00,38.7,21.6,29.88,SSE,158,0.0,3.0,50,0.00,,,0.00,meteohub,2013-04-30 05:37:00,
2013-04-29 22:42:00,37.9,21.9,29.88,South,181,0.0,2.0,52,0.00,,,0.00,meteohub,2013-04-30 05:42:00,
2013-04-29 22:47:00,37.8,21.7,29.88,ESE,115,1.0,4.0,52,0.00,,,0.00,meteohub,2013-04-30 05:47:00,
2013-04-29 22:52:00,37.9,22.3,29.88,ESE,115,1.0,4.0,53,0.00,,,0.00,meteohub,2013-04-30 05:52:00,
2013-04-29 22:57:00,37.9,22.8,29.88,ESE,115,1.0,4.0,54,0.00,,,0.00,meteohub,2013-04-30 05:57:00,
2013-04-29 23:02:00,37.9,21.4,29.88,ESE,115,0.0,2.0,51,0.00,,,0.00,meteohub,2013-04-30 06:02:00,
2013-04-29 23:07:00,37.9,24.1,29.88,ESE,115,0.0,2.0,57,0.00,,,0.00,meteohub,2013-04-30 06:07:00,
2013-04-29 23:12:00,37.8,23.5,29.88,ESE,115,0.0,1.0,56,0.00,,,0.00,meteohub,2013-04-30 06:12:00,
2013-04-29 23:17:00,37.8,23.5,29.88,ESE,115,0.0,2.0,56,0.00,,,0.00,meteohub,2013-04-30 06:17:00,
2013-04-29 23:22:00,37.8,23.5,29.88,ESE,115,0.0,2.0,56,0.00,,,0.00,meteohub,2013-04-30 06:22:00,
2013-04-29 23:27:00,37.9,22.3,29.88,ESE,115,0.0,1.0,53,0.00,,,0.00,meteohub,2013-04-30 06:27:00,
2013-04-29 23:32:00,37.9,25.0,29.87,ESE,115,2.0,3.0,59,0.00,,,0.00,meteohub,2013-04-30 06:32:00,
2013-04-29 23:37:00,37.4,23.5,29.87,ESE,115,1.0,3.0,57,0.00,,,0.00,meteohub,2013-04-30 06:37:00,
2013-04-29 23:42:00,37.4,23.5,29.87,ESE,115,0.0,3.0,57,0.00,,,0.00,meteohub,2013-04-30 06:42:00,
2013-04-29 23:47:00,37.6,22.8,29.87,ESE,115,0.0,2.0,55,0.00,,,0.00,meteohub,2013-04-30 06:47:00,
2013-04-29 23:52:00,37.4,24.4,29.88,ESE,115,0.0,2.0,59,0.00,,,0.00,meteohub,2013-04-30 06:52:00,
2013-04-29 23:57:00,37.0,23.7,29.87,ESE,115,1.0,2.0,58,0.00,,,0.00,meteohub,2013-04-30 06:57:00,